sensor_id;sensor_type;location;lat;lon;timestamp;pressure;altitude;pressure_sealevel;temperature;humidity
61128;BME280;47013;42.664;23.242;2023-04-07T00:15:48;93735.84;;;1.46;59.92
61128;BME280;47013;42.664;23.242;2023-04-07T01:06:14;93723.09;;;1.59;60.17
61128;BME280;47013;42.664;23.242;2023-04-07T01:21:24;93718.31;;;1.91;58.28
61128;BME280;47013;42.664;23.242;2023-04-07T01:27:33;93711.06;;;1.92;57.69
61128;BME280;47013;42.664;23.242;2023-04-07T01:30:11;93714.28;;;2.01;58.08
61128;BME280;47013;42.664;23.242;2023-04-07T01:32:49;93706.38;;;2.08;57.27
61128;BME280;47013;42.664;23.242;2023-04-07T01:38:54;93706.13;;;1.94;57.23
61128;BME280;47013;42.664;23.242;2023-04-07T01:41:51;93705.19;;;1.83;57.72
61128;BME280;47013;42.664;23.242;2023-04-07T01:44:30;93699.50;;;1.84;57.23
61128;BME280;47013;42.664;23.242;2023-04-07T01:47:27;93695.81;;;1.92;57.26
61128;BME280;47013;42.664;23.242;2023-04-07T01:53:15;93691.81;;;2.05;56.15
61128;BME280;47013;42.664;23.242;2023-04-07T02:14:10;93687.78;;;1.69;55.56
61128;BME280;47013;42.664;23.242;2023-04-07T02:16:51;93688.19;;;1.71;55.78
61128;BME280;47013;42.664;23.242;2023-04-07T02:22:11;93687.84;;;1.96;56.04
61128;BME280;47013;42.664;23.242;2023-04-07T02:27:33;93688.72;;;2.03;54.95
61128;BME280;47013;42.664;23.242;2023-04-07T02:30:15;93685.88;;;1.93;54.45
61128;BME280;47013;42.664;23.242;2023-04-07T02:33:07;93692.22;;;2.07;54.83
61128;BME280;47013;42.664;23.242;2023-04-07T02:35:45;93697.41;;;2.20;54.29
61128;BME280;47013;42.664;23.242;2023-04-07T02:41:24;93693.00;;;2.31;53.57
61128;BME280;47013;42.664;23.242;2023-04-07T02:50:05;93695.81;;;1.92;54.15
61128;BME280;47013;42.664;23.242;2023-04-07T02:52:30;93692.06;;;1.97;53.77
61128;BME280;47013;42.664;23.242;2023-04-07T02:54:55;93703.00;;;2.11;53.65
61128;BME280;47013;42.664;23.242;2023-04-07T02:57:21;93702.47;;;2.25;52.97
61128;BME280;47013;42.664;23.242;2023-04-07T02:59:46;93697.63;;;2.34;52.96
61128;BME280;47013;42.664;23.242;2023-04-07T03:02:11;93696.56;;;2.39;52.78
61128;BME280;47013;42.664;23.242;2023-04-07T03:04:37;93701.25;;;2.45;51.49
61128;BME280;47013;42.664;23.242;2023-04-07T03:07:02;93712.22;;;2.36;52.73
61128;BME280;47013;42.664;23.242;2023-04-07T03:09:27;93709.63;;;2.44;52.55
61128;BME280;47013;42.664;23.242;2023-04-07T03:11:53;93706.78;;;2.33;51.51
61128;BME280;47013;42.664;23.242;2023-04-07T03:14:18;93705.47;;;2.46;51.65
61128;BME280;47013;42.664;23.242;2023-04-07T03:16:43;93705.25;;;2.58;51.48
61128;BME280;47013;42.664;23.242;2023-04-07T03:19:09;93703.13;;;2.45;51.51
61128;BME280;47013;42.664;23.242;2023-04-07T03:21:35;93706.97;;;2.21;51.93
61128;BME280;47013;42.664;23.242;2023-04-07T03:24:01;93710.53;;;2.28;52.25
61128;BME280;47013;42.664;23.242;2023-04-07T03:26:26;93712.56;;;2.35;51.99
61128;BME280;47013;42.664;23.242;2023-04-07T03:28:52;93713.66;;;2.34;52.45
61128;BME280;47013;42.664;23.242;2023-04-07T03:31:17;93701.66;;;2.47;51.93
61128;BME280;47013;42.664;23.242;2023-04-07T03:33:42;93702.28;;;2.37;51.52
61128;BME280;47013;42.664;23.242;2023-04-07T03:36:07;93695.19;;;2.48;51.18
61128;BME280;47013;42.664;23.242;2023-04-07T03:38:33;93700.63;;;2.55;51.64
61128;BME280;47013;42.664;23.242;2023-04-07T03:40:58;93701.34;;;2.52;52.03
61128;BME280;47013;42.664;23.242;2023-04-07T03:43:23;93699.25;;;2.39;52.30
61128;BME280;47013;42.664;23.242;2023-04-07T03:45:48;93693.56;;;2.44;51.88
61128;BME280;47013;42.664;23.242;2023-04-07T03:48:14;93692.50;;;2.48;52.29
61128;BME280;47013;42.664;23.242;2023-04-07T03:50:40;93695.19;;;2.48;51.76
61128;BME280;47013;42.664;23.242;2023-04-07T03:53:06;93699.69;;;2.44;52.42
61128;BME280;47013;42.664;23.242;2023-04-07T03:55:31;93700.81;;;2.43;53.05
61128;BME280;47013;42.664;23.242;2023-04-07T03:57:57;93702.38;;;2.44;52.34
61128;BME280;47013;42.664;23.242;2023-04-07T04:00:22;93697.78;;;2.45;51.93
61128;BME280;47013;42.664;23.242;2023-04-07T04:02:48;93697.34;;;2.39;52.70
61128;BME280;47013;42.664;23.242;2023-04-07T04:05:13;93698.03;;;2.10;53.14
61128;BME280;47013;42.664;23.242;2023-04-07T04:07:38;93711.53;;;2.20;52.88
61128;BME280;47013;42.664;23.242;2023-04-07T04:10:04;93707.88;;;2.28;52.67
61128;BME280;47013;42.664;23.242;2023-04-07T04:12:29;93707.13;;;2.31;53.37
61128;BME280;47013;42.664;23.242;2023-04-07T04:14:56;93711.78;;;2.34;53.38
61128;BME280;47013;42.664;23.242;2023-04-07T04:17:21;93715.16;;;2.31;53.68
61128;BME280;47013;42.664;23.242;2023-04-07T04:19:46;93714.13;;;2.36;52.86
61128;BME280;47013;42.664;23.242;2023-04-07T04:22:12;93720.28;;;2.40;52.45
61128;BME280;47013;42.664;23.242;2023-04-07T04:24:39;93722.22;;;2.43;52.52
61128;BME280;47013;42.664;23.242;2023-04-07T04:27:06;93717.59;;;2.40;52.29
61128;BME280;47013;42.664;23.242;2023-04-07T04:29:31;93718.38;;;2.41;52.63
61128;BME280;47013;42.664;23.242;2023-04-07T04:31:56;93721.09;;;2.44;52.34
61128;BME280;47013;42.664;23.242;2023-04-07T04:34:21;93713.97;;;2.52;52.69
61128;BME280;47013;42.664;23.242;2023-04-07T04:36:47;93719.31;;;2.52;52.44
61128;BME280;47013;42.664;23.242;2023-04-07T04:39:13;93716.41;;;2.60;52.60
61128;BME280;47013;42.664;23.242;2023-04-07T04:41:38;93711.94;;;2.45;51.83
61128;BME280;47013;42.664;23.242;2023-04-07T04:44:03;93714.28;;;2.24;52.95
61128;BME280;47013;42.664;23.242;2023-04-07T04:46:29;93710.06;;;2.23;52.83
61128;BME280;47013;42.664;23.242;2023-04-07T04:48:55;93714.88;;;2.36;52.12
61128;BME280;47013;42.664;23.242;2023-04-07T04:51:22;93708.91;;;2.47;52.46
61128;BME280;47013;42.664;23.242;2023-04-07T04:53:47;93716.22;;;2.50;51.92
61128;BME280;47013;42.664;23.242;2023-04-07T04:56:12;93719.84;;;2.61;51.88
61128;BME280;47013;42.664;23.242;2023-04-07T04:58:38;93724.09;;;2.65;51.11
61128;BME280;47013;42.664;23.242;2023-04-07T05:01:04;93730.00;;;2.75;51.72
61128;BME280;47013;42.664;23.242;2023-04-07T05:03:30;93739.00;;;2.89;51.50
61128;BME280;47013;42.664;23.242;2023-04-07T05:05:55;93731.56;;;2.79;50.25
61128;BME280;47013;42.664;23.242;2023-04-07T05:08:20;93738.63;;;2.64;50.92
61128;BME280;47013;42.664;23.242;2023-04-07T05:10:45;93732.03;;;2.58;50.78
61128;BME280;47013;42.664;23.242;2023-04-07T05:13:11;93741.66;;;2.63;50.74
61128;BME280;47013;42.664;23.242;2023-04-07T05:15:36;93739.94;;;2.74;50.80
61128;BME280;47013;42.664;23.242;2023-04-07T05:18:01;93751.63;;;2.89;50.85
61128;BME280;47013;42.664;23.242;2023-04-07T05:20:26;93749.75;;;2.66;50.36
61128;BME280;47013;42.664;23.242;2023-04-07T05:22:52;93748.53;;;2.60;50.34
61128;BME280;47013;42.664;23.242;2023-04-07T05:25:17;93750.72;;;2.55;50.84
61128;BME280;47013;42.664;23.242;2023-04-07T05:27:42;93750.19;;;2.72;50.15
61128;BME280;47013;42.664;23.242;2023-04-07T05:30:08;93749.63;;;2.86;49.59
61128;BME280;47013;42.664;23.242;2023-04-07T05:32:33;93757.81;;;2.96;50.15
61128;BME280;47013;42.664;23.242;2023-04-07T05:34:58;93764.50;;;3.10;49.77
61128;BME280;47013;42.664;23.242;2023-04-07T05:37:23;93754.75;;;3.24;50.82
61128;BME280;47013;42.664;23.242;2023-04-07T05:39:49;93767.13;;;3.33;49.79
61128;BME280;47013;42.664;23.242;2023-04-07T05:42:14;93762.81;;;3.24;49.20
61128;BME280;47013;42.664;23.242;2023-04-07T05:44:40;93757.03;;;3.22;48.55
61128;BME280;47013;42.664;23.242;2023-04-07T05:47:05;93760.84;;;3.21;48.83
61128;BME280;47013;42.664;23.242;2023-04-07T05:49:35;93759.88;;;3.07;48.86
61128;BME280;47013;42.664;23.242;2023-04-07T05:52:01;93763.34;;;3.07;48.87
61128;BME280;47013;42.664;23.242;2023-04-07T05:54:27;93756.00;;;3.01;48.99
61128;BME280;47013;42.664;23.242;2023-04-07T05:56:53;93750.75;;;3.11;49.55
61128;BME280;47013;42.664;23.242;2023-04-07T05:59:18;93756.38;;;3.29;48.73
61128;BME280;47013;42.664;23.242;2023-04-07T06:01:43;93752.03;;;3.51;48.02
61128;BME280;47013;42.664;23.242;2023-04-07T06:04:09;93755.25;;;3.64;47.16
61128;BME280;47013;42.664;23.242;2023-04-07T06:06:34;93752.69;;;3.41;48.50
61128;BME280;47013;42.664;23.242;2023-04-07T06:09:00;93750.47;;;3.16;47.42
61128;BME280;47013;42.664;23.242;2023-04-07T06:11:25;93753.69;;;3.29;48.48
61128;BME280;47013;42.664;23.242;2023-04-07T06:13:51;93743.78;;;3.33;47.86
61128;BME280;47013;42.664;23.242;2023-04-07T06:16:16;93753.72;;;3.33;47.78
61128;BME280;47013;42.664;23.242;2023-04-07T06:18:41;93755.28;;;3.34;47.48
61128;BME280;47013;42.664;23.242;2023-04-07T06:21:06;93759.50;;;3.35;47.58
61128;BME280;47013;42.664;23.242;2023-04-07T06:23:32;93748.63;;;3.24;47.53
61128;BME280;47013;42.664;23.242;2023-04-07T06:25:57;93754.31;;;3.19;48.74
61128;BME280;47013;42.664;23.242;2023-04-07T06:28:22;93760.19;;;3.28;48.02
61128;BME280;47013;42.664;23.242;2023-04-07T06:30:48;93757.66;;;3.39;48.71
61128;BME280;47013;42.664;23.242;2023-04-07T06:33:13;93749.53;;;3.35;47.22
61128;BME280;47013;42.664;23.242;2023-04-07T06:35:39;93741.59;;;3.42;47.79
61128;BME280;47013;42.664;23.242;2023-04-07T06:38:04;93745.59;;;3.55;47.32
61128;BME280;47013;42.664;23.242;2023-04-07T06:40:29;93749.78;;;3.53;47.44
61128;BME280;47013;42.664;23.242;2023-04-07T06:42:55;93756.09;;;3.68;47.08
61128;BME280;47013;42.664;23.242;2023-04-07T06:45:20;93758.94;;;3.85;46.53
61128;BME280;47013;42.664;23.242;2023-04-07T06:47:45;93764.81;;;3.95;46.43
61128;BME280;47013;42.664;23.242;2023-04-07T06:50:11;93761.03;;;4.03;46.94
61128;BME280;47013;42.664;23.242;2023-04-07T06:52:36;93768.13;;;4.18;45.88
61128;BME280;47013;42.664;23.242;2023-04-07T06:55:02;93766.66;;;4.28;45.28
61128;BME280;47013;42.664;23.242;2023-04-07T06:57:27;93772.53;;;4.40;45.36
61128;BME280;47013;42.664;23.242;2023-04-07T06:59:52;93767.06;;;4.70;44.98
61128;BME280;47013;42.664;23.242;2023-04-07T07:02:18;93766.22;;;4.63;46.00
61128;BME280;47013;42.664;23.242;2023-04-07T07:04:43;93767.16;;;4.85;44.37
61128;BME280;47013;42.664;23.242;2023-04-07T07:07:08;93774.47;;;4.91;43.94
61128;BME280;47013;42.664;23.242;2023-04-07T07:09:34;93775.88;;;4.71;44.76
61128;BME280;47013;42.664;23.242;2023-04-07T07:11:59;93774.25;;;4.59;45.18
61128;BME280;47013;42.664;23.242;2023-04-07T07:14:26;93773.91;;;5.19;47.72
61128;BME280;47013;42.664;23.242;2023-04-07T07:16:51;93778.88;;;5.17;44.15
61128;BME280;47013;42.664;23.242;2023-04-07T07:19:19;93767.38;;;5.20;44.50
61128;BME280;47013;42.664;23.242;2023-04-07T07:21:53;93777.91;;;5.47;43.90
61128;BME280;47013;42.664;23.242;2023-04-07T07:24:21;93781.00;;;5.49;43.75
61128;BME280;47013;42.664;23.242;2023-04-07T07:26:53;93788.53;;;5.25;43.48
61128;BME280;47013;42.664;23.242;2023-04-07T07:29:21;93790.78;;;5.16;44.62
61128;BME280;47013;42.664;23.242;2023-04-07T07:31:54;93788.16;;;5.23;44.27
61128;BME280;47013;42.664;23.242;2023-04-07T07:34:35;93797.38;;;5.29;44.11
61128;BME280;47013;42.664;23.242;2023-04-07T07:37:01;93795.91;;;5.36;44.38
61128;BME280;47013;42.664;23.242;2023-04-07T07:39:45;93800.38;;;5.14;43.99
61128;BME280;47013;42.664;23.242;2023-04-07T07:45:12;93794.88;;;4.96;43.78
61128;BME280;47013;42.664;23.242;2023-04-07T07:47:50;93798.72;;;4.98;44.21
61128;BME280;47013;42.664;23.242;2023-04-07T08:17:28;93801.88;;;5.77;42.70
61128;BME280;47013;42.664;23.242;2023-04-07T08:20:04;93805.06;;;5.93;42.96
61128;BME280;47013;42.664;23.242;2023-04-07T08:25:45;93804.38;;;5.41;43.77
61128;BME280;47013;42.664;23.242;2023-04-07T08:28:10;93810.28;;;5.72;45.96
61128;BME280;47013;42.664;23.242;2023-04-07T08:45:57;93797.53;;;6.77;40.17
61128;BME280;47013;42.664;23.242;2023-04-07T08:48:45;93796.78;;;7.01;40.27
61128;BME280;47013;42.664;23.242;2023-04-07T09:00:46;93788.66;;;8.49;37.42
61128;BME280;47013;42.664;23.242;2023-04-07T09:03:29;93790.91;;;7.67;38.68
61128;BME280;47013;42.664;23.242;2023-04-07T09:06:01;93789.84;;;6.90;39.84
61128;BME280;47013;42.664;23.242;2023-04-07T09:08:37;93798.81;;;8.90;73.24
61128;BME280;47013;42.664;23.242;2023-04-07T09:11:07;93790.69;;;10.10;53.96
61128;BME280;47013;42.664;23.242;2023-04-07T09:16:31;93790.47;;;11.12;34.52
61128;BME280;47013;42.664;23.242;2023-04-07T09:21:54;93796.38;;;9.51;34.23
61128;BME280;47013;42.664;23.242;2023-04-07T09:27:58;93802.16;;;9.08;35.63
61128;BME280;47013;42.664;23.242;2023-04-07T09:36:49;93814.00;;;8.73;36.80
61128;BME280;47013;42.664;23.242;2023-04-07T09:45:44;93814.19;;;8.38;38.04
61128;BME280;47013;42.664;23.242;2023-04-07T10:12:40;93808.50;;;8.84;37.08
61128;BME280;47013;42.664;23.242;2023-04-07T10:56:21;93827.38;;;8.18;43.06
61128;BME280;47013;42.664;23.242;2023-04-07T11:09:23;93834.31;;;8.22;42.70
61128;BME280;47013;42.664;23.242;2023-04-07T11:21:10;93823.50;;;8.19;43.38
61128;BME280;47013;42.664;23.242;2023-04-07T11:23:42;93832.03;;;8.14;39.99
61128;BME280;47013;42.664;23.242;2023-04-07T11:26:08;93836.22;;;8.25;40.25
61128;BME280;47013;42.664;23.242;2023-04-07T11:28:35;93828.97;;;8.08;39.93
61128;BME280;47013;42.664;23.242;2023-04-07T11:31:27;93836.28;;;8.11;39.36
61128;BME280;47013;42.664;23.242;2023-04-07T11:36:32;93840.81;;;8.32;38.56
61128;BME280;47013;42.664;23.242;2023-04-07T11:38:58;93844.31;;;8.29;38.29
61128;BME280;47013;42.664;23.242;2023-04-07T11:41:24;93842.00;;;8.27;38.58
61128;BME280;47013;42.664;23.242;2023-04-07T11:44:07;93838.91;;;8.29;39.05
61128;BME280;47013;42.664;23.242;2023-04-07T11:46:32;93847.00;;;8.36;39.88
61128;BME280;47013;42.664;23.242;2023-04-07T11:49:07;93843.91;;;8.38;39.18
61128;BME280;47013;42.664;23.242;2023-04-07T11:51:35;93848.13;;;8.42;39.14
61128;BME280;47013;42.664;23.242;2023-04-07T11:54:00;93850.03;;;8.49;40.17
61128;BME280;47013;42.664;23.242;2023-04-07T11:56:26;93845.34;;;8.60;42.32
61128;BME280;47013;42.664;23.242;2023-04-07T11:58:52;93842.28;;;8.54;42.79
61128;BME280;47013;42.664;23.242;2023-04-07T12:01:21;93838.09;;;8.43;43.61
61128;BME280;47013;42.664;23.242;2023-04-07T12:04:02;93844.75;;;8.13;44.07
61128;BME280;47013;42.664;23.242;2023-04-07T12:08:58;93827.84;;;7.91;44.68
61128;BME280;47013;42.664;23.242;2023-04-07T12:11:24;93834.06;;;7.85;44.75
61128;BME280;47013;42.664;23.242;2023-04-07T12:13:50;93837.19;;;7.69;45.36
61128;BME280;47013;42.664;23.242;2023-04-07T12:16:15;93832.88;;;7.86;45.62
61128;BME280;47013;42.664;23.242;2023-04-07T12:18:42;93827.47;;;7.89;46.28
61128;BME280;47013;42.664;23.242;2023-04-07T12:24:10;93836.72;;;7.95;45.42
61128;BME280;47013;42.664;23.242;2023-04-07T12:26:35;93840.97;;;7.96;45.92
61128;BME280;47013;42.664;23.242;2023-04-07T12:29:00;93837.50;;;7.96;45.44
61128;BME280;47013;42.664;23.242;2023-04-07T12:31:29;93829.00;;;7.90;45.58
61128;BME280;47013;42.664;23.242;2023-04-07T12:33:57;93839.00;;;8.04;45.49
61128;BME280;47013;42.664;23.242;2023-04-07T12:36:23;93838.53;;;8.20;45.35
61128;BME280;47013;42.664;23.242;2023-04-07T12:38:51;93831.53;;;8.40;44.79
61128;BME280;47013;42.664;23.242;2023-04-07T12:41:17;93837.69;;;8.48;44.93
61128;BME280;47013;42.664;23.242;2023-04-07T12:43:42;93831.84;;;8.60;43.24
61128;BME280;47013;42.664;23.242;2023-04-07T12:46:15;93839.19;;;8.56;44.16
61128;BME280;47013;42.664;23.242;2023-04-07T12:48:41;93837.31;;;8.42;44.24
61128;BME280;47013;42.664;23.242;2023-04-07T12:51:06;93841.66;;;8.22;45.29
61128;BME280;47013;42.664;23.242;2023-04-07T12:53:31;93831.66;;;8.08;45.19
61128;BME280;47013;42.664;23.242;2023-04-07T12:55:57;93836.31;;;8.08;45.67
61128;BME280;47013;42.664;23.242;2023-04-07T12:58:23;93827.38;;;8.14;45.42
61128;BME280;47013;42.664;23.242;2023-04-07T13:00:49;93834.63;;;8.32;46.47
61128;BME280;47013;42.664;23.242;2023-04-07T13:03:15;93835.38;;;8.50;45.12
61128;BME280;47013;42.664;23.242;2023-04-07T13:05:48;93833.84;;;8.49;45.64
61128;BME280;47013;42.664;23.242;2023-04-07T13:08:14;93836.34;;;8.81;44.85
61128;BME280;47013;42.664;23.242;2023-04-07T13:10:39;93838.94;;;8.99;43.84
61128;BME280;47013;42.664;23.242;2023-04-07T13:13:05;93841.56;;;9.06;43.59
61128;BME280;47013;42.664;23.242;2023-04-07T13:15:30;93844.81;;;8.86;43.65
61128;BME280;47013;42.664;23.242;2023-04-07T13:17:56;93840.66;;;8.68;43.55
61128;BME280;47013;42.664;23.242;2023-04-07T13:20:21;93838.63;;;8.82;43.98
61128;BME280;47013;42.664;23.242;2023-04-07T13:22:47;93839.09;;;8.74;43.97
61128;BME280;47013;42.664;23.242;2023-04-07T13:25:12;93844.50;;;8.70;44.34
61128;BME280;47013;42.664;23.242;2023-04-07T13:27:37;93848.28;;;8.83;44.35
61128;BME280;47013;42.664;23.242;2023-04-07T13:30:03;93851.50;;;8.64;44.80
61128;BME280;47013;42.664;23.242;2023-04-07T13:32:28;93851.50;;;8.64;45.16
61128;BME280;47013;42.664;23.242;2023-04-07T13:34:53;93848.06;;;8.60;44.76
61128;BME280;47013;42.664;23.242;2023-04-07T13:37:21;93862.72;;;8.55;45.78
61128;BME280;47013;42.664;23.242;2023-04-07T13:39:55;93859.25;;;8.55;45.70
61128;BME280;47013;42.664;23.242;2023-04-07T13:42:25;93866.19;;;8.63;46.58
61128;BME280;47013;42.664;23.242;2023-04-07T13:44:51;93875.13;;;8.46;46.06
61128;BME280;47013;42.664;23.242;2023-04-07T13:47:18;93878.63;;;8.43;46.24
61128;BME280;47013;42.664;23.242;2023-04-07T13:49:45;93870.59;;;8.07;47.02
61128;BME280;47013;42.664;23.242;2023-04-07T13:52:10;93879.88;;;8.10;47.72
61128;BME280;47013;42.664;23.242;2023-04-07T13:54:38;93889.56;;;7.96;47.54
61128;BME280;47013;42.664;23.242;2023-04-07T13:57:03;93884.56;;;7.95;47.47
61128;BME280;47013;42.664;23.242;2023-04-07T13:59:29;93885.69;;;7.90;48.24
61128;BME280;47013;42.664;23.242;2023-04-07T14:01:55;93893.81;;;7.80;48.66
61128;BME280;47013;42.664;23.242;2023-04-07T14:04:20;93887.69;;;7.68;49.24
61128;BME280;47013;42.664;23.242;2023-04-07T14:06:46;93893.47;;;7.56;49.78
61128;BME280;47013;42.664;23.242;2023-04-07T14:09:12;93896.16;;;7.49;50.08
61128;BME280;47013;42.664;23.242;2023-04-07T14:11:39;93895.41;;;7.56;50.37
61128;BME280;47013;42.664;23.242;2023-04-07T14:14:05;93903.09;;;7.54;50.54
61128;BME280;47013;42.664;23.242;2023-04-07T14:16:31;93903.47;;;7.52;50.69
61128;BME280;47013;42.664;23.242;2023-04-07T14:18:56;93900.41;;;7.39;52.49
61128;BME280;47013;42.664;23.242;2023-04-07T14:21:22;93911.56;;;7.42;52.02
61128;BME280;47013;42.664;23.242;2023-04-07T14:23:48;93911.56;;;7.38;52.26
61128;BME280;47013;42.664;23.242;2023-04-07T14:26:13;93920.81;;;7.40;55.13
61128;BME280;47013;42.664;23.242;2023-04-07T14:28:38;93908.13;;;7.30;53.14
61128;BME280;47013;42.664;23.242;2023-04-07T14:31:03;93916.19;;;7.37;53.44
61128;BME280;47013;42.664;23.242;2023-04-07T14:33:29;93919.28;;;7.36;53.34
61128;BME280;47013;42.664;23.242;2023-04-07T14:35:55;93920.44;;;7.31;53.98
61128;BME280;47013;42.664;23.242;2023-04-07T14:38:21;93915.03;;;7.28;53.93
61128;BME280;47013;42.664;23.242;2023-04-07T14:40:48;93923.53;;;7.37;55.09
61128;BME280;47013;42.664;23.242;2023-04-07T14:43:14;93922.00;;;7.57;62.98
61128;BME280;47013;42.664;23.242;2023-04-07T14:45:39;93922.00;;;7.47;55.32
61128;BME280;47013;42.664;23.242;2023-04-07T14:48:04;93930.88;;;7.44;54.19
61128;BME280;47013;42.664;23.242;2023-04-07T14:50:32;93929.69;;;7.41;54.72
61128;BME280;47013;42.664;23.242;2023-04-07T14:52:58;93926.91;;;8.19;100.00
61128;BME280;47013;42.664;23.242;2023-04-07T14:55:23;93926.66;;;9.98;100.00
61128;BME280;47013;42.664;23.242;2023-04-07T14:57:48;93936.09;;;11.49;84.34
61128;BME280;47013;42.664;23.242;2023-04-07T15:00:14;93941.91;;;12.45;72.08
61128;BME280;47013;42.664;23.242;2023-04-07T15:02:39;93935.72;;;12.21;45.63
61128;BME280;47013;42.664;23.242;2023-04-07T15:05:05;93935.47;;;11.38;46.08
61128;BME280;47013;42.664;23.242;2023-04-07T15:07:30;93938.19;;;10.47;47.93
61128;BME280;47013;42.664;23.242;2023-04-07T15:09:55;93943.09;;;9.77;49.05
61128;BME280;47013;42.664;23.242;2023-04-07T15:12:21;93936.66;;;9.01;51.13
61128;BME280;47013;42.664;23.242;2023-04-07T15:14:49;93936.88;;;8.54;53.08
61128;BME280;47013;42.664;23.242;2023-04-07T15:17:14;93940.41;;;8.34;53.87
61128;BME280;47013;42.664;23.242;2023-04-07T15:19:40;93937.38;;;7.99;54.56
61128;BME280;47013;42.664;23.242;2023-04-07T15:22:05;93945.88;;;7.66;56.10
61128;BME280;47013;42.664;23.242;2023-04-07T15:24:30;93945.50;;;7.53;56.40
61128;BME280;47013;42.664;23.242;2023-04-07T15:26:55;93941.25;;;7.34;56.21
61128;BME280;47013;42.664;23.242;2023-04-07T15:29:21;93950.84;;;7.14;57.92
61128;BME280;47013;42.664;23.242;2023-04-07T15:31:46;93948.88;;;7.00;58.53
61128;BME280;47013;42.664;23.242;2023-04-07T15:34:11;93948.84;;;6.90;59.31
61128;BME280;47013;42.664;23.242;2023-04-07T15:36:38;93953.47;;;6.89;59.76
61128;BME280;47013;42.664;23.242;2023-04-07T15:39:04;93955.41;;;6.89;59.77
61128;BME280;47013;42.664;23.242;2023-04-07T15:41:29;93955.81;;;6.94;61.41
61128;BME280;47013;42.664;23.242;2023-04-07T15:43:54;93950.44;;;6.98;60.09
61128;BME280;47013;42.664;23.242;2023-04-07T15:46:20;93956.22;;;7.00;60.19
61128;BME280;47013;42.664;23.242;2023-04-07T15:48:45;93958.88;;;6.89;59.79
61128;BME280;47013;42.664;23.242;2023-04-07T15:51:12;93959.25;;;6.80;59.72
61128;BME280;47013;42.664;23.242;2023-04-07T15:53:40;93959.59;;;6.72;60.28
61128;BME280;47013;42.664;23.242;2023-04-07T15:56:05;93963.78;;;6.62;60.93
61128;BME280;47013;42.664;23.242;2023-04-07T15:58:34;93973.00;;;6.54;61.16
61128;BME280;47013;42.664;23.242;2023-04-07T16:00:59;93973.00;;;6.58;61.15
61128;BME280;47013;42.664;23.242;2023-04-07T16:03:24;93964.94;;;6.54;61.07
61128;BME280;47013;42.664;23.242;2023-04-07T16:05:51;93956.81;;;6.47;61.15
61128;BME280;47013;42.664;23.242;2023-04-07T16:08:17;93969.16;;;6.52;61.23
61128;BME280;47013;42.664;23.242;2023-04-07T16:10:42;93976.47;;;6.55;61.05
61128;BME280;47013;42.664;23.242;2023-04-07T16:13:08;93978.34;;;6.50;60.97
61128;BME280;47013;42.664;23.242;2023-04-07T16:15:33;93982.19;;;6.46;61.59
61128;BME280;47013;42.664;23.242;2023-04-07T16:17:59;93980.66;;;6.45;60.88
61128;BME280;47013;42.664;23.242;2023-04-07T16:20:24;93985.63;;;6.39;60.83
61128;BME280;47013;42.664;23.242;2023-04-07T16:22:50;93994.06;;;6.34;61.36
61128;BME280;47013;42.664;23.242;2023-04-07T16:25:15;93989.88;;;6.40;60.98
61128;BME280;47013;42.664;23.242;2023-04-07T16:27:40;93989.88;;;6.47;60.85
61128;BME280;47013;42.664;23.242;2023-04-07T16:30:06;93996.03;;;6.48;60.86
61128;BME280;47013;42.664;23.242;2023-04-07T16:32:32;93997.97;;;6.47;61.14
61128;BME280;47013;42.664;23.242;2023-04-07T16:34:58;93995.31;;;6.51;60.85
61128;BME280;47013;42.664;23.242;2023-04-07T16:37:23;93998.41;;;6.53;60.87
61128;BME280;47013;42.664;23.242;2023-04-07T16:39:48;93998.44;;;6.64;61.44
61128;BME280;47013;42.664;23.242;2023-04-07T16:42:14;94005.00;;;6.70;60.61
61128;BME280;47013;42.664;23.242;2023-04-07T16:44:39;94000.78;;;6.69;60.26
61128;BME280;47013;42.664;23.242;2023-04-07T16:47:05;94000.78;;;6.69;60.38
61128;BME280;47013;42.664;23.242;2023-04-07T16:49:30;94008.47;;;6.70;60.32
61128;BME280;47013;42.664;23.242;2023-04-07T16:51:55;94008.09;;;6.68;59.97
61128;BME280;47013;42.664;23.242;2023-04-07T16:54:21;94002.25;;;6.59;60.25
61128;BME280;47013;42.664;23.242;2023-04-07T16:56:47;94007.25;;;6.57;60.93
61128;BME280;47013;42.664;23.242;2023-04-07T16:59:12;94008.78;;;6.55;60.66
61128;BME280;47013;42.664;23.242;2023-04-07T17:01:38;94017.66;;;6.55;60.66
61128;BME280;47013;42.664;23.242;2023-04-07T17:04:03;94024.19;;;6.58;61.48
61128;BME280;47013;42.664;23.242;2023-04-07T17:06:29;94022.28;;;6.58;61.08
61128;BME280;47013;42.664;23.242;2023-04-07T17:08:54;94027.56;;;6.40;62.12
61128;BME280;47013;42.664;23.242;2023-04-07T17:11:19;94029.50;;;6.43;62.32
61128;BME280;47013;42.664;23.242;2023-04-07T17:13:44;94027.97;;;6.46;61.54
61128;BME280;47013;42.664;23.242;2023-04-07T17:16:11;94030.28;;;6.47;61.73
61128;BME280;47013;42.664;23.242;2023-04-07T17:18:39;94028.69;;;6.36;62.88
61128;BME280;47013;42.664;23.242;2023-04-07T17:21:05;94038.59;;;6.21;63.04
61128;BME280;47013;42.664;23.242;2023-04-07T17:23:30;94030.91;;;6.19;62.90
61128;BME280;47013;42.664;23.242;2023-04-07T17:25:55;94036.72;;;6.25;62.77
61128;BME280;47013;42.664;23.242;2023-04-07T17:28:21;94039.75;;;6.20;62.81
61128;BME280;47013;42.664;23.242;2023-04-07T17:30:46;94037.84;;;6.24;62.76
61128;BME280;47013;42.664;23.242;2023-04-07T17:33:11;94051.38;;;6.31;62.78
61128;BME280;47013;42.664;23.242;2023-04-07T17:35:36;94051.38;;;6.35;62.79
61128;BME280;47013;42.664;23.242;2023-04-07T17:38:02;94050.63;;;6.38;63.79
61128;BME280;47013;42.664;23.242;2023-04-07T17:40:27;94057.19;;;6.40;63.03
61128;BME280;47013;42.664;23.242;2023-04-07T17:42:53;94062.59;;;6.40;61.78
61128;BME280;47013;42.664;23.242;2023-04-07T17:45:19;94064.13;;;6.41;60.97
61128;BME280;47013;42.664;23.242;2023-04-07T17:47:44;94059.50;;;6.42;61.16
61128;BME280;47013;42.664;23.242;2023-04-07T17:50:10;94063.75;;;6.43;61.61
61128;BME280;47013;42.664;23.242;2023-04-07T17:52:35;94066.06;;;6.44;62.39